Time;durP1;ratioP1;P1;durP2;ratioP2;P2;SDS_P1;SDS_P2;PMS_P1;PMS_P2;Temp;Humidity;BMP_temperature;BMP_pressure;BME280_temperature;BME280_humidity;BME280_pressure;Samples;Min_cycle;Max_cycle;Signal;HPM_P1;HPM_P2
2022/09/23 00:01:10;;;;;;;5.30;2.20;;;9.80;99.90;;;-144.05;63.75;125687.94;5053780;28;20037;-82
2022/09/23 00:03:40;;;;;;;4.10;2.13;;;9.90;99.90;;;-144.05;63.86;125687.94;5060730;28;20037;-81
2022/09/23 00:06:18;;;;;;;4.95;2.50;;;9.90;99.90;;;-144.05;63.56;125687.94;5034410;28;20034;-80
2022/09/23 00:08:44;;;;;;;4.35;2.40;;;10.00;99.90;;;-144.05;63.18;125687.94;5033666;28;20112;-78
2022/09/23 00:11:25;;;;;;;4.20;1.95;;;10.00;99.90;;;-144.05;63.21;125687.94;5033721;28;20113;-77
2022/09/23 00:13:58;;;;;;;4.63;2.42;;;10.10;99.90;;;-144.05;62.83;125687.94;5032557;28;20021;-80
2022/09/23 00:16:32;;;;;;;4.07;2.30;;;10.10;99.90;;;-144.05;62.87;125687.94;5033818;28;20052;-79
2022/09/23 00:19:01;;;;;;;4.03;2.28;;;10.10;99.90;;;-144.05;62.62;125687.94;5049088;28;20029;-80
2022/09/23 00:21:28;;;;;;;5.82;2.28;;;10.10;99.90;;;-144.05;62.91;125687.94;5032554;28;20120;-79
2022/09/23 00:23:54;;;;;;;3.97;2.30;;;10.10;99.90;;;-144.05;62.90;125687.94;5033565;28;20067;-79
2022/09/23 00:26:22;;;;;;;2.88;1.90;;;10.20;99.90;;;-144.05;61.96;125687.94;5044346;28;20033;-80
2022/09/23 00:28:49;;;;;;;7.60;2.08;;;10.30;99.90;;;-144.05;62.13;125687.94;5048656;28;20113;-81
2022/09/23 00:31:22;;;;;;;5.55;2.00;;;10.20;99.90;;;-144.05;62.25;125687.94;5034521;28;20029;-80
2022/09/23 00:33:59;;;;;;;5.57;1.95;;;10.30;99.90;;;-144.05;61.74;125687.94;5049686;28;20377;-81
2022/09/23 00:36:28;;;;;;;2.47;1.80;;;10.30;99.90;;;-144.05;61.79;125687.94;5049164;28;20021;-82
2022/09/23 00:38:55;;;;;;;3.60;1.70;;;10.30;99.90;;;-144.05;61.92;125687.94;5048932;28;20032;-80
2022/09/23 00:41:21;;;;;;;4.43;1.90;;;10.30;99.90;;;-144.05;61.60;125687.94;5031975;28;20037;-78
2022/09/23 00:43:58;;;;;;;3.88;1.73;;;10.30;99.90;;;-144.05;61.62;125687.94;5048352;28;20445;-79
2022/09/23 00:46:35;;;;;;;4.43;1.88;;;10.30;99.90;;;-144.05;61.45;125687.94;5048639;28;20041;-80
2022/09/23 00:49:23;;;;;;;6.50;2.40;;;10.30;99.90;;;-144.05;61.18;125687.94;5033114;28;20404;-80
2022/09/23 00:52:05;;;;;;;3.58;1.55;;;10.30;99.90;;;-144.05;61.16;125687.94;5048306;28;20524;-79
2022/09/23 00:54:32;;;;;;;7.55;2.40;;;10.40;99.90;;;-144.05;60.94;125687.94;5032619;28;20037;-78
2022/09/23 00:57:02;;;;;;;4.20;1.60;;;10.40;99.90;;;-144.05;60.91;125687.94;5042437;28;20482;-80
2022/09/23 00:59:35;;;;;;;4.30;1.77;;;10.40;99.90;;;-144.05;60.49;125687.94;5062433;28;20045;-78
2022/09/23 01:02:03;;;;;;;3.00;1.70;;;10.40;99.90;;;-144.05;60.46;125687.94;5045817;28;20017;-78
2022/09/23 01:04:30;;;;;;;3.60;1.60;;;10.50;99.90;;;-144.05;60.48;125687.94;5046983;28;20048;-79
2022/09/23 01:06:56;;;;;;;3.67;1.45;;;10.50;99.90;;;-144.05;60.27;125687.94;5047656;28;20010;-78
2022/09/23 01:09:24;;;;;;;5.75;1.40;;;10.50;99.90;;;-144.05;60.46;125687.94;5042971;28;20036;-81
2022/09/23 01:12:17;;;;;;;5.50;1.70;;;10.50;99.90;;;-144.05;60.45;125687.94;5062693;28;20038;-79
2022/09/23 01:15:32;;;;;;;3.97;1.85;;;10.50;99.90;;;-144.05;60.14;125687.94;5038850;28;20029;-80
2022/09/23 01:19:21;;;;;;;3.58;2.08;;;10.50;99.90;;;-144.05;60.17;125687.94;5047540;28;20030;-79
2022/09/23 01:22:29;;;;;;;3.30;1.50;;;10.40;99.90;;;-144.05;59.92;125687.94;5027830;28;20034;-78
2022/09/23 01:25:40;;;;;;;2.80;1.50;;;10.40;99.90;;;-144.05;60.04;125687.94;5034437;28;20029;-79
2022/09/23 01:29:03;;;;;;;2.72;1.40;;;10.40;99.90;;;-144.05;59.61;125687.94;5031836;28;20029;-80
2022/09/23 01:32:16;;;;;;;1.85;1.60;;;10.40;99.90;;;-144.05;59.79;125687.94;5031778;28;20125;-80
2022/09/23 01:35:31;;;;;;;3.25;1.85;;;10.40;99.90;;;-144.05;60.52;125687.94;5029278;28;20408;-78
2022/09/23 01:38:11;;;;;;;3.55;1.83;;;10.20;99.90;;;-144.05;61.01;125687.94;5032213;28;20025;-77
2022/09/23 01:41:20;;;;;;;2.90;1.95;;;10.10;99.90;;;-144.05;62.01;125687.94;5035231;28;20029;-79
2022/09/23 01:44:06;;;;;;;3.10;1.63;;;10.00;99.90;;;-144.05;62.58;125687.94;5036559;28;20030;-80
2022/09/23 01:46:57;;;;;;;3.05;1.80;;;9.80;99.90;;;-144.05;62.72;125687.94;5035190;28;20052;-80
2022/09/23 01:50:00;;;;;;;2.85;1.60;;;9.70;99.90;;;-144.05;63.08;125687.94;5036583;28;20025;-80
2022/09/23 01:52:43;;;;;;;5.25;2.00;;;9.60;99.90;;;-144.05;63.75;125687.94;5036351;28;20087;-80
2022/09/23 01:55:21;;;;;;;5.13;2.50;;;9.60;99.90;;;-144.05;63.84;125687.94;5049038;28;20045;-81
2022/09/23 01:58:11;;;;;;;2.80;2.08;;;9.50;99.90;;;-144.05;63.63;125687.94;5049604;28;20117;-79
2022/09/23 02:00:52;;;;;;;3.80;2.10;;;9.50;99.90;;;-144.05;63.04;125687.94;5064872;28;20033;-78
2022/09/23 02:03:31;;;;;;;5.15;1.77;;;9.70;99.90;;;-144.05;62.06;125687.94;5051163;28;20036;-80
2022/09/23 02:06:42;;;;;;;4.82;2.03;;;9.80;99.90;;;-144.05;61.28;125687.94;5050876;28;20041;-80
2022/09/23 02:09:17;;;;;;;3.80;2.08;;;10.00;99.90;;;-144.05;60.77;125687.94;5032355;28;20040;-80
2022/09/23 02:11:51;;;;;;;3.47;1.97;;;10.10;99.90;;;-144.05;60.36;125687.94;5035490;28;20041;-80
2022/09/23 02:14:32;;;;;;;4.82;2.33;;;10.10;99.90;;;-144.05;60.19;125687.94;5035398;28;20030;-79
2022/09/23 02:17:12;;;;;;;3.83;2.22;;;10.20;99.90;;;-144.05;59.88;125687.94;5050752;28;20026;-77
2022/09/23 02:19:53;;;;;;;6.78;2.00;;;10.30;99.90;;;-144.05;59.74;125687.94;5035321;28;20059;-78
2022/09/23 02:23:07;;;;;;;3.20;1.70;;;10.30;99.90;;;-144.05;59.69;125687.94;5050520;28;20425;-78
2022/09/23 02:26:15;;;;;;;4.50;1.60;;;10.40;99.90;;;-144.05;59.17;125687.94;5050362;28;20037;-78
2022/09/23 02:29:19;;;;;;;2.13;1.60;;;10.40;99.90;;;-144.05;59.74;125687.94;5034045;28;20128;-82
2022/09/23 02:32:05;;;;;;;3.85;1.95;;;10.30;99.90;;;-144.05;60.36;125687.94;5051052;28;20399;-79
2022/09/23 02:35:24;;;;;;;3.43;1.63;;;10.20;99.90;;;-144.05;60.84;125687.94;5035487;28;20104;-79
2022/09/23 02:38:24;;;;;;;2.00;1.80;;;10.10;99.90;;;-144.05;61.32;125687.94;5056007;28;20025;-80
2022/09/23 02:41:13;;;;;;;2.78;1.75;;;9.90;99.90;;;-144.05;61.50;125687.94;5037784;28;20030;-81
2022/09/23 02:43:45;;;;;;;3.30;1.85;;;9.90;99.90;;;-144.05;61.30;125687.94;5052272;28;20435;-80
2022/09/23 02:46:11;;;;;;;4.57;1.80;;;9.90;99.90;;;-144.05;61.06;125687.94;5035989;28;20125;-81
2022/09/23 02:48:49;;;;;;;5.85;2.20;;;9.90;99.90;;;-144.05;60.65;125687.94;5035144;28;20036;-80
2022/09/23 02:51:15;;;;;;;3.10;1.70;;;10.00;99.90;;;-144.05;60.02;125687.94;5035204;28;20388;-77
2022/09/23 02:53:42;;;;;;;3.30;1.90;;;10.10;99.90;;;-144.05;59.70;125687.94;5050836;28;20056;-77
2022/09/23 02:56:20;;;;;;;3.42;2.30;;;10.10;99.90;;;-144.05;59.93;125687.94;5034961;28;20393;-78
2022/09/23 02:58:54;;;;;;;4.72;1.77;;;10.20;99.90;;;-144.05;59.46;125687.94;5034386;28;20036;-78
2022/09/23 03:01:55;;;;;;;2.60;1.70;;;10.20;99.90;;;-144.05;59.34;125687.94;5050415;28;20072;-79
2022/09/23 03:07:09;;;;;;;3.13;2.08;;;10.30;99.90;;;-144.05;58.72;125687.94;5059397;23;20073;-77
2022/09/23 03:09:58;;;;;;;3.55;2.03;;;10.30;99.90;;;-144.05;58.98;125687.94;5041418;28;20033;-77
2022/09/23 03:12:46;;;;;;;4.13;1.48;;;10.30;99.90;;;-144.05;58.85;125687.94;5040085;28;20041;-77
2022/09/23 03:16:33;;;;;;;3.67;2.03;;;10.40;99.90;;;-144.05;58.21;125687.94;5056298;28;20026;-77
2022/09/23 03:19:42;;;;;;;4.68;1.83;;;10.40;99.90;;;-144.05;58.38;125687.94;4980034;28;20058;-77
2022/09/23 03:22:38;;;;;;;6.28;1.42;;;10.50;99.90;;;-144.05;57.81;125687.94;5021446;28;20073;-78
2022/09/23 03:25:18;;;;;;;4.80;2.13;;;10.50;99.90;;;-144.05;57.78;125687.94;5017700;28;20159;-77
2022/09/23 03:27:44;;;;;;;2.33;1.50;;;10.50;99.90;;;-144.05;57.69;125687.94;5020624;28;20026;-77
2022/09/23 03:30:12;;;;;;;7.85;1.42;;;10.50;99.90;;;-144.05;57.90;125687.94;5016550;28;20133;-79
2022/09/23 03:32:45;;;;;;;3.30;1.70;;;10.50;99.90;;;-144.05;58.44;125687.94;5015047;28;20033;-78
2022/09/23 03:35:13;;;;;;;3.90;1.70;;;10.40;99.90;;;-144.05;58.88;125687.94;5014859;28;20037;-78
2022/09/23 03:37:53;;;;;;;4.97;1.90;;;10.30;99.90;;;-144.05;59.35;125687.94;5014835;28;20496;-78
2022/09/23 03:40:42;;;;;;;2.55;1.35;;;10.20;99.90;;;-144.05;59.79;125687.94;5014873;28;20101;-77
2022/09/23 03:43:12;;;;;;;2.60;1.77;;;10.10;99.90;;;-144.05;59.45;125687.94;5014176;28;20109;-75
2022/09/23 03:45:41;;;;;;;3.38;1.83;;;10.10;99.90;;;-144.05;59.67;125687.94;5014218;28;20547;-78
2022/09/23 03:48:08;;;;;;;3.17;1.80;;;10.10;99.90;;;-144.05;59.51;125687.94;5016702;28;20045;-79
2022/09/23 03:50:38;;;;;;;4.00;1.80;;;10.10;99.90;;;-144.05;59.38;125687.94;5013901;28;20037;-75
2022/09/23 03:53:03;;;;;;;3.00;1.60;;;10.10;99.90;;;-144.05;59.19;125687.94;5014065;28;20034;-77
2022/09/23 03:55:31;;;;;;;2.10;1.50;;;10.10;99.90;;;-144.05;59.15;125687.94;5014687;28;20029;-78
2022/09/23 03:57:59;;;;;;;4.45;1.80;;;10.20;99.90;;;-144.05;58.97;125687.94;5013761;28;20030;-77
2022/09/23 04:00:26;;;;;;;3.53;2.22;;;10.10;99.90;;;-144.05;58.69;125687.94;5012883;28;20022;-77
2022/09/23 04:02:51;;;;;;;5.60;2.22;;;10.20;99.90;;;-144.05;58.83;125687.94;5012979;28;20037;-76
2022/09/23 04:05:17;;;;;;;6.57;2.13;;;10.20;99.90;;;-144.05;58.39;125687.94;5013319;28;20034;-76
2022/09/23 04:07:43;;;;;;;4.30;2.13;;;10.20;99.90;;;-144.05;58.23;125687.94;5013975;28;20033;-78
2022/09/23 04:10:10;;;;;;;3.90;2.03;;;10.30;99.90;;;-144.05;58.51;125687.94;5014259;28;20026;-76
2022/09/23 04:12:36;;;;;;;3.38;1.95;;;10.30;99.90;;;-144.05;58.27;125687.94;5014169;28;20084;-77
2022/09/23 04:15:04;;;;;;;3.47;1.98;;;10.30;99.90;;;-144.05;58.49;125687.94;5012391;28;20021;-77
2022/09/23 04:17:29;;;;;;;4.13;2.25;;;10.20;99.90;;;-144.05;58.66;125687.94;5013992;28;20026;-77
2022/09/23 04:19:55;;;;;;;6.53;1.90;;;10.20;99.90;;;-144.05;58.70;125687.94;5014344;28;20236;-74
2022/09/23 04:22:22;;;;;;;4.45;2.38;;;10.20;99.90;;;-144.05;58.87;125687.94;5013600;28;20485;-78
2022/09/23 04:24:48;;;;;;;5.53;2.20;;;10.10;99.90;;;-144.05;59.22;125687.94;5013595;28;20033;-78
2022/09/23 04:27:14;;;;;;;3.30;2.00;;;10.00;99.90;;;-144.05;60.16;125687.94;5014069;28;20034;-78
2022/09/23 04:29:40;;;;;;;4.03;2.20;;;9.80;99.90;;;-144.05;61.33;125687.94;5012361;28;20029;-77
2022/09/23 04:32:06;;;;;;;3.67;2.50;;;9.60;99.90;;;-144.05;61.88;125687.94;5012906;28;20038;-78
2022/09/23 04:34:31;;;;;;;3.10;2.15;;;9.50;99.90;;;-144.05;61.66;125687.94;5011864;28;20033;-77
2022/09/23 04:36:57;;;;;;;7.22;3.30;;;9.50;99.90;;;-144.05;61.81;125687.94;5012860;28;20026;-75
2022/09/23 04:39:23;;;;;;;6.97;2.53;;;9.50;99.90;;;-144.05;61.75;125687.94;5014254;28;20485;-77
2022/09/23 04:41:49;;;;;;;6.78;3.15;;;9.50;99.90;;;-144.05;61.78;125687.94;5017023;28;20037;-78
2022/09/23 04:44:15;;;;;;;5.15;3.00;;;9.50;99.90;;;-144.05;61.67;125687.94;5015975;28;20038;-79
2022/09/23 04:46:48;;;;;;;4.75;3.13;;;9.60;99.90;;;-144.05;61.35;125687.94;5015814;28;20354;-78
2022/09/23 04:49:15;;;;;;;4.38;2.60;;;9.60;99.90;;;-144.05;61.29;125687.94;5014173;28;20248;-79
2022/09/23 04:51:42;;;;;;;6.10;2.65;;;9.70;99.90;;;-144.05;61.42;125687.94;5014031;28;20022;-80
2022/09/23 04:54:11;;;;;;;4.53;2.80;;;9.80;99.90;;;-144.05;61.01;125687.94;5014554;28;20033;-75
2022/09/23 04:56:38;;;;;;;5.53;2.78;;;9.80;99.90;;;-144.05;60.36;125687.94;5014918;28;20075;-80
2022/09/23 04:59:04;;;;;;;6.35;2.95;;;9.90;99.90;;;-144.05;60.16;125687.94;5012711;28;20060;-76
2022/09/23 05:01:33;;;;;;;6.93;2.70;;;10.00;99.90;;;-144.05;60.16;125687.94;5024372;28;20026;-77
2022/09/23 05:04:06;;;;;;;4.63;2.33;;;9.90;99.90;;;-144.05;59.85;125687.94;5014193;28;20489;-77
2022/09/23 05:06:35;;;;;;;7.38;2.50;;;10.00;99.90;;;-144.05;60.03;125687.94;5015120;28;20030;-77
2022/09/23 05:09:06;;;;;;;5.15;2.13;;;10.00;99.90;;;-144.05;59.92;125687.94;5013363;28;20452;-79
2022/09/23 05:11:33;;;;;;;4.40;2.65;;;10.00;99.90;;;-144.05;60.29;125687.94;5014397;28;20508;-77
2022/09/23 05:13:59;;;;;;;2.60;1.98;;;9.90;99.90;;;-144.05;60.51;125687.94;5013792;28;20041;-77
2022/09/23 05:16:26;;;;;;;5.70;2.00;;;9.90;99.90;;;-144.05;60.65;125687.94;5016949;28;20028;-76
2022/09/23 05:18:53;;;;;;;5.57;2.15;;;9.90;99.90;;;-144.05;60.64;125687.94;5017726;28;20392;-78
2022/09/23 05:21:23;;;;;;;4.68;2.17;;;9.90;99.90;;;-144.05;60.00;125687.94;5017785;28;20029;-76
2022/09/23 05:23:53;;;;;;;7.15;2.38;;;9.70;99.90;;;-144.05;60.81;125687.94;5019058;28;20046;-80
2022/09/23 05:26:24;;;;;;;3.17;2.25;;;9.60;99.90;;;-144.05;61.47;125687.94;5018172;28;20497;-78
2022/09/23 05:28:50;;;;;;;4.00;2.30;;;9.60;99.90;;;-144.05;61.57;125687.94;5018560;28;20029;-76
2022/09/23 05:31:27;;;;;;;4.57;2.28;;;9.50;99.90;;;-144.05;61.83;125687.94;5018452;28;20093;-78
2022/09/23 05:34:00;;;;;;;6.03;2.85;;;9.40;99.90;;;-144.05;62.53;125687.94;5018800;28;20302;-76
2022/09/23 05:36:28;;;;;;;4.53;2.55;;;9.20;99.90;;;-144.05;63.54;125687.94;5016052;28;20042;-77
2022/09/23 05:38:58;;;;;;;7.43;2.58;;;9.10;99.90;;;-144.05;63.38;125687.94;5017850;28;20026;-79
2022/09/23 05:41:26;;;;;;;3.45;2.70;;;9.10;99.90;;;-144.05;63.67;125687.94;5018458;28;20104;-78
2022/09/23 05:43:54;;;;;;;5.00;2.63;;;9.10;99.90;;;-144.05;63.77;125687.94;5019194;28;20075;-77
2022/09/23 05:46:26;;;;;;;4.20;2.70;;;9.00;99.90;;;-144.05;64.54;125687.94;5018247;28;20026;-79
2022/09/23 05:48:55;;;;;;;5.30;3.15;;;8.90;99.90;;;-144.05;65.00;125687.94;5016119;28;20026;-79
2022/09/23 05:51:25;;;;;;;9.45;3.83;;;8.90;99.90;;;-144.05;65.54;125687.94;5017295;28;20030;-80
2022/09/23 05:53:54;;;;;;;8.85;3.70;;;8.90;99.90;;;-144.05;65.79;125687.94;5017260;28;20099;-77
2022/09/23 05:56:27;;;;;;;8.48;3.65;;;8.80;99.90;;;-144.05;66.36;125687.94;5017989;28;20140;-78
2022/09/23 05:58:57;;;;;;;5.93;3.40;;;8.80;99.90;;;-144.05;65.95;125687.94;5018672;28;20053;-78
2022/09/23 06:01:32;;;;;;;6.60;3.65;;;8.80;99.90;;;-144.05;65.95;125687.94;5019318;28;20109;-78
2022/09/23 06:04:01;;;;;;;6.97;3.90;;;8.90;99.90;;;-144.05;66.31;125687.94;5018138;28;20079;-79
2022/09/23 06:06:40;;;;;;;6.72;3.00;;;8.90;99.90;;;-144.05;66.36;125687.94;5018237;28;20280;-79
2022/09/23 06:09:12;;;;;;;6.45;2.90;;;9.10;99.90;;;-144.05;65.19;125687.94;5015803;28;20029;-77
2022/09/23 06:11:39;;;;;;;5.78;3.33;;;9.30;99.90;;;-144.05;64.05;125687.94;5016512;28;20481;-79
2022/09/23 06:14:05;;;;;;;7.90;2.80;;;9.60;99.90;;;-144.05;62.40;125687.94;5016507;28;20029;-79
2022/09/23 06:16:34;;;;;;;7.30;3.00;;;9.90;99.90;;;-144.05;61.67;125687.94;5016799;28;20022;-79
2022/09/23 06:19:06;;;;;;;4.68;3.20;;;10.20;99.90;;;-144.05;60.31;125687.94;5017476;28;20155;-78
2022/09/23 06:21:37;;;;;;;5.57;2.97;;;10.40;99.90;;;-144.05;59.68;125687.94;5015609;28;20075;-77
2022/09/23 06:24:07;;;;;;;6.35;2.58;;;10.70;99.90;;;-144.05;59.19;125687.94;5015332;28;20172;-77
2022/09/23 06:26:36;;;;;;;3.45;2.08;;;10.90;99.90;;;-144.05;58.60;125687.94;5014796;28;20034;-77
2022/09/23 06:29:13;;;;;;;4.60;2.38;;;11.00;99.90;;;-144.05;59.09;125687.94;5017193;28;20026;-79
2022/09/23 06:31:42;;;;;;;7.13;2.90;;;11.10;99.90;;;-144.05;59.24;125687.94;5018816;28;20076;-78
2022/09/23 06:34:12;;;;;;;4.28;2.20;;;11.10;99.90;;;-144.05;59.40;125687.94;5018277;28;20034;-79
2022/09/23 06:36:43;;;;;;;4.88;2.70;;;11.10;99.90;;;-144.05;59.67;125687.94;5018870;28;20018;-78
2022/09/23 06:39:08;;;;;;;5.47;2.72;;;11.20;99.90;;;-144.05;59.68;125687.94;5019595;28;20026;-77
2022/09/23 06:41:34;;;;;;;5.53;2.33;;;11.20;99.90;;;-144.05;59.51;125687.94;5019759;28;20029;-79
2022/09/23 06:44:02;;;;;;;4.15;2.78;;;11.20;99.90;;;-144.05;59.66;125687.94;5017528;28;20057;-80
2022/09/23 06:46:28;;;;;;;9.90;3.40;;;11.40;99.90;;;-144.05;59.27;125687.94;5017383;28;20436;-76
2022/09/23 06:48:53;;;;;;;5.97;3.05;;;11.50;99.90;;;-144.05;59.01;125687.94;5018440;28;20070;-77
2022/09/23 06:51:20;;;;;;;4.90;3.08;;;11.80;99.90;;;-144.05;57.27;125687.94;5017771;28;20052;-78
2022/09/23 06:53:48;;;;;;;6.60;2.95;;;11.80;99.90;;;-144.05;56.39;125687.94;5018276;28;20030;-78
2022/09/23 06:56:18;;;;;;;6.75;2.30;;;12.00;99.90;;;-144.05;54.63;125687.94;5016961;28;20074;-78
2022/09/23 06:58:45;;;;;;;4.47;1.95;;;12.30;99.90;;;-144.05;54.29;125687.94;5017155;28;20049;-79
2022/09/23 07:01:17;;;;;;;3.88;2.05;;;12.60;99.90;;;-144.05;53.25;125687.94;5016659;28;20042;-77
2022/09/23 07:03:46;;;;;;;4.53;2.20;;;13.00;99.90;;;-144.05;51.73;125687.94;5020018;28;20502;-79
2022/09/23 07:06:12;;;;;;;6.25;2.10;;;13.40;99.90;;;-144.05;51.22;125687.94;5014801;28;20049;-77
2022/09/23 07:08:43;;;;;;;6.45;2.33;;;13.70;99.90;;;-144.05;48.87;125687.94;5013736;28;20485;-78
2022/09/23 07:11:11;;;;;;;4.85;2.10;;;14.00;99.90;;;-144.05;48.76;125687.94;5014254;28;20022;-78
2022/09/23 07:13:40;;;;;;;3.40;1.80;;;14.30;99.90;;;-144.05;47.62;125687.94;5012475;28;20026;-77
2022/09/23 07:16:09;;;;;;;3.90;2.10;;;14.50;99.90;;;-144.05;46.68;125687.94;5014049;28;20373;-79
2022/09/23 07:18:36;;;;;;;3.50;1.80;;;14.70;99.90;;;-144.05;46.54;125687.94;5012319;28;20025;-78
2022/09/23 07:21:17;;;;;;;4.60;1.92;;;14.90;99.90;;;-144.05;46.64;125687.94;5013390;28;20018;-77
2022/09/23 07:23:49;;;;;;;3.05;2.03;;;15.10;99.90;;;-144.05;45.23;125687.94;5012168;28;20053;-78
2022/09/23 07:26:17;;;;;;;2.50;1.80;;;15.40;99.90;;;-144.05;45.75;125687.94;5013538;28;20044;-79
2022/09/23 07:28:44;;;;;;;3.65;1.73;;;15.50;99.90;;;-144.05;45.69;125687.94;5014049;28;20029;-77
2022/09/23 07:31:16;;;;;;;5.05;2.13;;;15.70;99.90;;;-144.05;44.39;125687.94;5013592;28;20527;-78
2022/09/23 07:33:42;;;;;;;5.57;2.60;;;16.00;99.90;;;-144.05;44.59;125687.94;5013707;28;20033;-79
2022/09/23 07:36:17;;;;;;;5.15;2.33;;;16.10;99.90;;;-144.05;43.94;125687.94;5013072;28;20134;-76
2022/09/23 07:38:46;;;;;;;4.20;1.90;;;16.30;99.90;;;-144.05;43.96;125687.94;5012619;28;20115;-79
2022/09/23 07:41:17;;;;;;;5.07;2.40;;;16.20;99.90;;;-144.05;44.58;125687.94;5013589;28;20126;-77
2022/09/23 07:43:45;;;;;;;7.22;2.10;;;16.00;99.90;;;-144.05;45.09;125687.94;5012285;28;20396;-78
2022/09/23 07:46:16;;;;;;;3.65;1.80;;;16.00;99.90;;;-144.05;45.09;125687.94;5022774;28;20053;-80
2022/09/23 07:48:44;;;;;;;3.38;1.50;;;16.10;99.90;;;-144.05;44.79;125687.94;5014984;28;20029;-77
2022/09/23 07:51:26;;;;;;;3.97;1.52;;;16.20;99.90;;;-144.05;44.43;125687.94;5013741;28;20064;-78
2022/09/23 07:53:55;;;;;;;2.80;1.45;;;16.40;99.90;;;-144.05;43.84;125687.94;5011823;28;20081;-77
2022/09/23 07:56:27;;;;;;;17.30;1.77;;;16.60;99.90;;;-144.05;43.30;125687.94;5012953;28;20076;-77
2022/09/23 07:58:59;;;;;;;3.10;1.27;;;16.90;99.90;;;-144.05;43.73;125687.94;5012526;28;20485;-78
2022/09/23 08:01:36;;;;;;;4.90;1.58;;;17.20;99.90;;;-144.05;42.81;125687.94;5012273;28;20041;-77
2022/09/23 08:04:12;;;;;;;2.75;1.55;;;17.40;99.90;;;-144.05;43.25;125687.94;5011594;28;20069;-77
2022/09/23 08:06:49;;;;;;;2.40;1.27;;;17.40;99.90;;;-144.05;41.48;125687.94;5012335;28;20113;-78
2022/09/23 08:09:19;;;;;;;5.30;1.40;;;17.30;99.90;;;-144.05;42.43;125687.94;5012397;28;20030;-77
2022/09/23 08:11:45;;;;;;;1.83;1.30;;;17.20;99.90;;;-144.05;41.98;125687.94;5011529;28;20034;-77
2022/09/23 08:14:14;;;;;;;3.55;1.50;;;17.40;99.90;;;-144.05;42.14;125687.94;5013762;28;20041;-77
2022/09/23 08:16:42;;;;;;;4.50;1.67;;;17.50;99.90;;;-144.05;41.62;125687.94;5013998;28;20038;-77
2022/09/23 08:19:11;;;;;;;4.13;1.80;;;17.70;99.90;;;-144.05;41.61;125687.94;5011123;28;20030;-79
2022/09/23 08:21:39;;;;;;;3.17;1.65;;;17.70;99.90;;;-144.05;41.29;125687.94;5012720;28;20042;-77
2022/09/23 08:24:25;;;;;;;4.40;1.50;;;17.80;99.90;;;-144.05;40.65;125687.94;5011089;28;20030;-77
2022/09/23 08:26:53;;;;;;;5.20;1.30;;;17.80;99.90;;;-144.05;41.02;125687.94;5012634;28;20564;-80
2022/09/23 08:29:24;;;;;;;2.17;1.27;;;17.80;99.90;;;-144.05;41.12;125687.94;5012199;28;20033;-79
2022/09/23 08:31:51;;;;;;;6.40;1.55;;;17.70;99.90;;;-144.05;41.45;125687.94;5011065;28;20421;-79
2022/09/23 08:34:20;;;;;;;3.30;1.27;;;17.60;99.90;;;-144.05;41.12;125687.94;5010912;28;20029;-77
2022/09/23 08:36:46;;;;;;;2.95;1.45;;;17.50;99.90;;;-144.05;41.41;125687.94;5010841;28;20022;-79
2022/09/23 08:39:17;;;;;;;2.47;1.33;;;17.50;99.90;;;-144.05;40.79;125687.94;5013354;28;20021;-77
2022/09/23 08:41:51;;;;;;;1.95;1.33;;;17.50;99.90;;;-144.05;41.85;125687.94;5012596;28;20377;-77
2022/09/23 08:45:01;;;;;;;1.60;1.20;;;17.50;99.90;;;-144.05;40.87;125687.94;5012443;28;20508;-79
2022/09/23 08:48:04;;;;;;;2.50;1.48;;;17.50;99.90;;;-144.05;41.01;125687.94;5012701;28;20036;-77
2022/09/23 08:50:49;;;;;;;3.00;1.30;;;17.40;99.90;;;-144.05;41.16;125687.94;5012908;28;20034;-77
2022/09/23 08:53:24;;;;;;;5.28;1.45;;;17.40;99.90;;;-144.05;41.32;125687.94;5015029;28;20040;-80
2022/09/23 08:55:57;;;;;;;1.95;1.35;;;17.20;99.90;;;-144.05;42.13;125687.94;5014104;28;20085;-80
2022/09/23 08:58:55;;;;;;;4.72;1.38;;;17.10;99.90;;;-144.05;42.16;125687.94;5017649;28;20107;-79
2022/09/23 09:01:20;;;;;;;3.35;1.65;;;17.00;99.90;;;-144.05;42.03;125687.94;5013641;28;20041;-78
2022/09/23 09:03:59;;;;;;;3.08;1.48;;;17.00;99.90;;;-144.05;42.22;125687.94;5012401;28;20060;-79
2022/09/23 09:06:55;;;;;;;3.08;1.20;;;16.90;99.90;;;-144.05;42.89;125687.94;5037813;23;20413;-84
2022/09/23 09:09:38;;;;;;;6.72;1.70;;;16.90;99.90;;;-144.05;42.53;125687.94;5012214;28;20033;-83
2022/09/23 09:12:21;;;;;;;4.20;1.45;;;16.90;99.90;;;-144.05;42.51;125687.94;5011092;28;20034;-85
2022/09/23 09:15:05;;;;;;;3.72;1.20;;;17.00;99.90;;;-144.05;43.36;125687.94;5007799;28;20033;-83
2022/09/23 09:17:40;;;;;;;2.38;1.40;;;17.00;99.90;;;-144.05;42.92;125687.94;5008217;28;20034;-83
2022/09/23 09:20:17;;;;;;;2.10;1.60;;;17.20;99.90;;;-144.05;42.57;125687.94;5008425;28;20037;-84
2022/09/23 09:22:59;;;;;;;3.10;1.60;;;17.20;99.90;;;-144.05;42.21;125687.94;5007756;28;20030;-85
2022/09/23 09:25:48;;;;;;;4.63;1.50;;;17.20;99.90;;;-144.05;42.48;125687.94;5007706;28;20061;-85
2022/09/23 09:28:46;;;;;;;6.00;1.75;;;17.30;99.90;;;-144.05;42.27;125687.94;5008912;28;20510;-86
2022/09/23 09:31:36;;;;;;;5.13;1.70;;;17.40;99.90;;;-144.05;41.84;125687.94;5008039;28;20034;-85
2022/09/23 09:34:43;;;;;;;3.80;1.30;;;17.50;99.90;;;-144.05;41.50;125687.94;4992908;28;20093;-85
2022/09/23 09:37:29;;;;;;;4.55;1.35;;;17.50;99.90;;;-144.05;42.35;125687.94;4993355;28;20041;-83
2022/09/23 09:39:55;;;;;;;6.10;1.50;;;17.60;99.90;;;-144.05;41.20;125687.94;5010267;28;20019;-85
2022/09/23 09:42:51;;;;;;;4.40;1.40;;;17.70;99.90;;;-144.05;42.29;125687.94;5008817;28;20038;-85
2022/09/23 09:46:24;;;;;;;3.03;1.52;;;17.70;99.90;;;-144.05;41.29;125687.94;4987543;28;20053;-87
2022/09/23 09:49:33;;;;;;;4.75;1.42;;;17.80;99.90;;;-144.05;40.01;125687.94;5007406;28;20038;-81
2022/09/23 09:52:26;;;;;;;2.90;1.38;;;17.70;99.90;;;-144.05;41.21;125687.94;4992412;28;20110;-85
2022/09/23 09:54:53;;;;;;;2.00;1.33;;;17.70;99.90;;;-144.05;41.70;125687.94;5007585;28;20035;-84
2022/09/23 09:57:37;;;;;;;2.13;1.15;;;17.80;99.90;;;-144.05;41.28;125687.94;5011863;28;20027;-81
2022/09/23 10:00:25;;;;;;;6.93;1.60;;;17.80;99.90;;;-144.05;41.02;125687.94;5032647;28;20066;-86
2022/09/23 10:03:19;;;;;;;3.13;1.27;;;17.80;99.90;;;-144.05;40.36;125687.94;5011124;28;20046;-85
2022/09/23 10:05:44;;;;;;;2.10;1.20;;;17.80;99.90;;;-144.05;40.30;125687.94;5010814;28;20030;-85
2022/09/23 10:08:36;;;;;;;2.83;1.40;;;17.80;99.90;;;-144.05;40.03;125687.94;5010774;28;20080;-84
2022/09/23 10:11:20;;;;;;;2.28;1.15;;;17.90;99.90;;;-144.05;39.28;125687.94;4995776;28;20030;-85
2022/09/23 10:14:17;;;;;;;2.45;1.38;;;18.00;99.90;;;-144.05;40.33;125687.94;5010607;28;20065;-84
2022/09/23 10:17:00;;;;;;;2.13;1.27;;;18.00;99.90;;;-144.05;40.00;125687.94;5010806;28;20457;-84
2022/09/23 10:19:28;;;;;;;2.92;1.45;;;18.10;99.90;;;-144.05;39.08;125687.94;5010801;28;20037;-89
2022/09/23 10:22:04;;;;;;;1.55;1.23;;;18.40;99.90;;;-144.05;39.51;125687.94;5011472;28;20034;-87
2022/09/23 10:24:35;;;;;;;6.20;1.58;;;18.60;99.90;;;-144.05;39.00;125687.94;5011036;28;20041;-86
2022/09/23 10:27:07;;;;;;;3.47;1.35;;;18.70;99.90;;;-144.05;38.56;125687.94;5010556;28;20502;-85
2022/09/23 10:29:49;;;;;;;2.70;1.17;;;18.70;99.90;;;-144.05;38.69;125687.94;4994665;28;20493;-86
2022/09/23 10:32:43;;;;;;;5.50;1.60;;;18.70;99.90;;;-144.05;38.47;125687.94;5010983;28;20022;-85
2022/09/23 10:35:12;;;;;;;2.42;1.20;;;18.50;99.90;;;-144.05;39.00;125687.94;5004062;28;20038;-87
2022/09/23 10:37:49;;;;;;;3.20;1.20;;;18.50;99.90;;;-144.05;38.67;125687.94;5011401;28;20054;-87
2022/09/23 10:46:49;;;;;;;3.05;1.40;;;18.40;99.90;;;-144.05;39.11;125687.94;4997002;28;20391;-87
2022/09/23 10:49:51;;;;;;;2.15;1.30;;;18.40;99.90;;;-144.05;39.27;125687.94;4999380;28;20040;-88